Time;durP1;ratioP1;P1;durP2;ratioP2;P2;SDS_P1;SDS_P2;PMS_P1;PMS_P2;Temp;Humidity;BMP_temperature;BMP_pressure;BME280_temperature;BME280_humidity;BME280_pressure;Samples;Min_cycle;Max_cycle;Signal;HPM_P1;HPM_P2
2021/01/07 00:01:30;;;;;;;;;;;27.40;36.70;;;;;;5086829;28;19912;-47
2021/01/07 00:03:56;;;;;;;;;;;27.50;36.70;;;;;;5084881;28;20002;-48
2021/01/07 00:06:21;;;;;;;;;;;27.40;36.70;;;;;;5084083;28;19916;-48
2021/01/07 00:08:47;;;;;;;;;;;27.40;36.60;;;;;;5085918;28;19920;-50
2021/01/07 00:11:12;;;;;;;;;;;27.40;36.70;;;;;;5084344;28;19924;-48
2021/01/07 00:13:38;;;;;;;;;;;27.40;36.70;;;;;;5073618;28;19916;-49
2021/01/07 00:16:03;;;;;;;;;;;27.50;36.80;;;;;;5076073;28;19912;-48
2021/01/07 00:18:29;;;;;;;;;;;27.40;36.80;;;;;;5075126;28;19931;-47
2021/01/07 00:20:54;;;;;;;;;;;27.50;36.80;;;;;;5078679;28;19913;-51
2021/01/07 00:23:20;;;;;;;;;;;27.40;37.00;;;;;;5084369;28;20010;-49
2021/01/07 00:25:54;;;;;;;;;;;27.40;37.10;;;;;;5079248;28;20374;-49
2021/01/07 00:28:20;;;;;;;;;;;27.40;37.40;;;;;;5089974;28;19919;-49
2021/01/07 00:30:45;;;;;;;;;;;27.40;37.70;;;;;;5080334;28;19913;-49
2021/01/07 00:33:11;;;;;;;;;;;27.40;37.80;;;;;;5090620;28;19912;-48
2021/01/07 00:35:37;;;;;;;;;;;27.40;38.00;;;;;;5094598;28;19965;-48
2021/01/07 00:38:03;;;;;;;;;;;27.50;38.30;;;;;;5075198;28;20394;-48
2021/01/07 00:40:28;;;;;;;;;;;27.50;38.40;;;;;;5075272;28;19913;-48
2021/01/07 00:42:54;;;;;;;;;;;27.50;38.60;;;;;;5074883;28;19909;-48
2021/01/07 00:45:19;;;;;;;;;;;27.50;38.60;;;;;;5088112;28;19912;-48
2021/01/07 00:47:45;;;;;;;;;;;27.50;38.50;;;;;;5095603;28;19908;-49
2021/01/07 00:50:11;;;;;;;;;;;27.50;38.50;;;;;;5083258;28;20428;-49
2021/01/07 00:52:38;;;;;;;;;;;27.50;38.40;;;;;;5074815;28;20287;-47
2021/01/07 00:55:03;;;;;;;;;;;27.50;38.20;;;;;;5085710;28;19913;-47
2021/01/07 00:57:29;;;;;;;;;;;27.50;38.20;;;;;;5095360;28;19912;-49
2021/01/07 00:59:54;;;;;;;;;;;27.50;38.20;;;;;;5083905;28;19935;-48
2021/01/07 01:02:20;;;;;;;;;;;27.50;38.20;;;;;;5092178;28;19951;-51
2021/01/07 01:04:45;;;;;;;;;;;27.50;38.10;;;;;;5079787;28;19973;-50
2021/01/07 01:07:11;;;;;;;;;;;27.50;38.10;;;;;;5075679;28;20305;-51
2021/01/07 01:09:36;;;;;;;;;;;27.50;38.00;;;;;;5078018;28;19920;-53
2021/01/07 01:12:02;;;;;;;;;;;27.60;38.10;;;;;;5074511;28;20358;-53
2021/01/07 01:14:27;;;;;;;;;;;27.50;38.10;;;;;;5075212;28;19962;-52
2021/01/07 01:16:53;;;;;;;;;;;27.50;38.00;;;;;;5074408;28;19919;-51
2021/01/07 01:19:19;;;;;;;;;;;27.50;38.00;;;;;;5064063;28;19916;-52
2021/01/07 01:21:44;;;;;;;;;;;27.50;38.10;;;;;;5094510;28;20053;-53
2021/01/07 01:24:10;;;;;;;;;;;27.50;38.10;;;;;;5094472;28;19911;-53
2021/01/07 01:26:36;;;;;;;;;;;27.50;38.10;;;;;;5094841;28;19915;-52
2021/01/07 01:29:01;;;;;;;;;;;27.50;37.90;;;;;;5092403;28;20367;-48
2021/01/07 01:31:27;;;;;;;;;;;27.50;37.90;;;;;;5077442;28;19924;-49
2021/01/07 01:33:52;;;;;;;;;;;27.50;37.90;;;;;;5087449;28;20003;-48
2021/01/07 01:36:25;;;;;;;;;;;27.50;37.90;;;;;;5094636;28;20384;-47
2021/01/07 01:38:50;;;;;;;;;;;27.50;38.00;;;;;;5076184;28;20374;-48
2021/01/07 01:41:16;;;;;;;;;;;27.50;38.00;;;;;;5074241;28;19916;-48
2021/01/07 01:43:41;;;;;;;;;;;27.50;38.10;;;;;;5073813;28;19998;-49
2021/01/07 01:46:06;;;;;;;;;;;27.50;37.90;;;;;;5093226;28;19916;-47
2021/01/07 01:48:32;;;;;;;;;;;27.50;37.90;;;;;;5094417;28;19909;-48
2021/01/07 01:50:58;;;;;;;;;;;27.50;38.00;;;;;;5075286;28;19920;-48
2021/01/07 01:53:23;;;;;;;;;;;27.50;38.00;;;;;;5073751;28;19940;-49
2021/01/07 01:55:49;;;;;;;;;;;27.50;38.00;;;;;;5089132;28;20007;-47
2021/01/07 01:58:14;;;;;;;;;;;27.50;38.00;;;;;;5073615;28;19909;-48
2021/01/07 02:00:40;;;;;;;;;;;27.50;38.00;;;;;;5082637;28;19916;-48
2021/01/07 02:03:08;;;;;;;;;;;27.50;38.00;;;;;;5081852;28;19948;-48
2021/01/07 02:05:37;;;;;;;;;;;27.50;38.00;;;;;;5073536;28;19916;-49
2021/01/07 02:08:03;;;;;;;;;;;27.50;38.00;;;;;;5074421;28;20381;-49
2021/01/07 02:10:31;;;;;;;;;;;27.50;37.90;;;;;;5074050;28;19920;-48
2021/01/07 02:12:57;;;;;;;;;;;27.50;38.00;;;;;;5076498;28;20333;-48
2021/01/07 02:15:23;;;;;;;;;;;27.50;38.00;;;;;;5069141;28;19909;-49
2021/01/07 02:17:48;;;;;;;;;;;27.50;37.90;;;;;;5053316;28;19909;-48
2021/01/07 02:20:13;;;;;;;;;;;27.50;37.90;;;;;;5078222;28;19912;-48
2021/01/07 02:22:39;;;;;;;;;;;27.50;37.90;;;;;;5090445;28;20286;-48
2021/01/07 02:25:05;;;;;;;;;;;27.50;37.90;;;;;;5081530;28;19947;-48
2021/01/07 02:27:30;;;;;;;;;;;27.50;37.90;;;;;;5073373;28;20355;-50
2021/01/07 02:29:56;;;;;;;;;;;27.50;37.90;;;;;;5076492;28;20017;-47
2021/01/07 02:32:21;;;;;;;;;;;27.50;37.90;;;;;;5093491;28;19916;-47
2021/01/07 02:34:46;;;;;;;;;;;27.50;37.80;;;;;;5074057;28;19917;-48
2021/01/07 02:37:12;;;;;;;;;;;27.50;37.80;;;;;;5077261;28;19918;-50
2021/01/07 02:39:37;;;;;;;;;;;27.50;37.80;;;;;;5093397;28;20284;-48
2021/01/07 02:42:03;;;;;;;;;;;27.50;37.80;;;;;;5075446;28;19913;-48
2021/01/07 02:44:28;;;;;;;;;;;27.50;37.80;;;;;;5073108;28;19909;-48
2021/01/07 02:46:54;;;;;;;;;;;27.50;37.80;;;;;;5077268;28;19912;-48
2021/01/07 02:49:20;;;;;;;;;;;27.50;37.70;;;;;;5093032;28;19933;-48
2021/01/07 02:51:45;;;;;;;;;;;27.50;37.80;;;;;;5093179;28;19922;-48
2021/01/07 02:54:11;;;;;;;;;;;27.50;37.70;;;;;;5085733;28;19917;-49
2021/01/07 02:56:36;;;;;;;;;;;27.50;37.70;;;;;;5055400;28;19921;-49
2021/01/07 02:59:02;;;;;;;;;;;27.50;37.80;;;;;;5072957;28;20266;-49
2021/01/07 03:01:27;;;;;;;;;;;27.50;37.80;;;;;;5087953;28;19916;-52
2021/01/07 03:03:56;;;;;;;;;;;27.50;37.80;;;;;;5079261;28;20432;-49
2021/01/07 03:06:24;;;;;;;;;;;27.50;37.70;;;;;;5073340;28;19955;-48
2021/01/07 03:08:50;;;;;;;;;;;27.50;37.70;;;;;;5092464;28;20003;-48
2021/01/07 03:11:15;;;;;;;;;;;27.50;37.70;;;;;;5080412;28;20061;-49
2021/01/07 03:13:41;;;;;;;;;;;27.50;37.70;;;;;;5085840;28;19913;-49
2021/01/07 03:16:06;;;;;;;;;;;27.50;37.70;;;;;;5079274;28;19916;-48
2021/01/07 03:18:31;;;;;;;;;;;27.50;38.30;;;;;;5088421;28;19917;-47
2021/01/07 03:20:57;;;;;;;;;;;27.50;37.80;;;;;;5072707;28;20321;-48
2021/01/07 03:23:22;;;;;;;;;;;27.50;37.70;;;;;;5075046;28;19920;-50
2021/01/07 03:25:48;;;;;;;;;;;27.50;37.70;;;;;;5091816;28;19912;-49
2021/01/07 03:28:13;;;;;;;;;;;27.50;37.70;;;;;;5092380;28;19931;-48
2021/01/07 03:30:39;;;;;;;;;;;27.50;37.70;;;;;;5082530;28;19920;-48
2021/01/07 03:33:04;;;;;;;;;;;27.50;37.70;;;;;;5076410;28;20037;-48
2021/01/07 03:35:30;;;;;;;;;;;27.50;37.70;;;;;;5092682;28;20384;-48
2021/01/07 03:37:55;;;;;;;;;;;27.50;37.70;;;;;;5082185;28;19967;-48
2021/01/07 03:40:21;;;;;;;;;;;27.50;37.70;;;;;;5074897;28;19913;-48
2021/01/07 03:42:46;;;;;;;;;;;27.50;37.70;;;;;;5072206;28;19917;-48
2021/01/07 03:45:12;;;;;;;;;;;27.50;37.70;;;;;;5083964;28;19916;-51
2021/01/07 03:47:37;;;;;;;;;;;27.50;37.80;;;;;;5075080;28;19920;-48
2021/01/07 03:50:03;;;;;;;;;;;27.50;37.70;;;;;;5072211;28;20316;-48
2021/01/07 03:52:29;;;;;;;;;;;27.50;37.60;;;;;;5090498;28;19920;-48
2021/01/07 03:54:54;;;;;;;;;;;27.50;37.60;;;;;;5093375;28;19908;-50
2021/01/07 03:57:20;;;;;;;;;;;27.50;37.70;;;;;;5096621;28;19909;-48
2021/01/07 03:59:45;;;;;;;;;;;27.50;37.70;;;;;;5088359;28;20390;-52
2021/01/07 04:02:10;;;;;;;;;;;27.50;37.70;;;;;;5095366;28;19955;-48
2021/01/07 04:04:36;;;;;;;;;;;27.50;37.80;;;;;;5095904;28;19908;-49
2021/01/07 04:07:01;;;;;;;;;;;27.50;38.10;;;;;;5088749;28;19999;-48
2021/01/07 04:09:27;;;;;;;;;;;27.50;38.30;;;;;;5081253;28;19920;-48
2021/01/07 04:11:52;;;;;;;;;;;27.50;38.40;;;;;;5094094;28;19924;-48
2021/01/07 04:14:18;;;;;;;;;;;27.50;38.60;;;;;;5091547;28;20405;-49
2021/01/07 04:16:43;;;;;;;;;;;27.60;38.60;;;;;;5075933;28;19909;-49
2021/01/07 04:19:09;;;;;;;;;;;27.50;38.60;;;;;;5075635;28;20344;-52
2021/01/07 04:21:44;;;;;;;;;;;27.50;38.60;;;;;;5090686;28;20011;-49
2021/01/07 04:24:11;;;;;;;;;;;27.50;38.60;;;;;;5077788;28;19958;-51
2021/01/07 04:26:38;;;;;;;;;;;27.50;38.50;;;;;;5075415;28;20012;-48
2021/01/07 04:29:03;;;;;;;;;;;27.50;38.60;;;;;;5076458;28;19924;-50
2021/01/07 04:31:29;;;;;;;;;;;27.50;38.60;;;;;;5089766;28;19927;-49
2021/01/07 04:33:54;;;;;;;;;;;27.50;38.50;;;;;;5076978;28;19916;-52
2021/01/07 04:36:20;;;;;;;;;;;27.50;38.50;;;;;;5079719;28;19912;-50
2021/01/07 04:38:45;;;;;;;;;;;27.50;38.50;;;;;;5095148;28;19909;-53
2021/01/07 04:41:11;;;;;;;;;;;27.50;38.60;;;;;;5075361;28;19912;-52
2021/01/07 04:43:36;;;;;;;;;;;27.50;38.50;;;;;;5075332;28;20382;-51
2021/01/07 04:46:02;;;;;;;;;;;27.50;38.40;;;;;;5088835;28;19919;-53
2021/01/07 04:48:27;;;;;;;;;;;27.50;38.40;;;;;;5075427;28;19912;-49
2021/01/07 04:50:53;;;;;;;;;;;27.50;38.40;;;;;;5074843;28;19920;-49
2021/01/07 04:53:18;;;;;;;;;;;27.50;38.40;;;;;;5075165;28;20003;-50
2021/01/07 04:55:43;;;;;;;;;;;27.50;38.40;;;;;;5091524;28;20369;-50
2021/01/07 04:58:09;;;;;;;;;;;27.50;38.30;;;;;;5093857;28;19914;-49
2021/01/07 05:00:34;;;;;;;;;;;27.50;38.30;;;;;;5093374;28;19969;-50
2021/01/07 05:03:00;;;;;;;;;;;27.50;38.30;;;;;;5082615;28;20403;-50
2021/01/07 05:05:26;;;;;;;;;;;27.50;38.20;;;;;;5074879;28;19915;-50
2021/01/07 05:07:52;;;;;;;;;;;27.50;38.20;;;;;;5080941;28;19912;-50
2021/01/07 05:10:17;;;;;;;;;;;27.40;38.10;;;;;;5093687;28;19912;-49
2021/01/07 05:12:43;;;;;;;;;;;27.50;38.20;;;;;;5095109;28;19920;-50
2021/01/07 05:15:08;;;;;;;;;;;27.50;38.10;;;;;;5089251;28;19916;-50
2021/01/07 05:17:34;;;;;;;;;;;27.50;38.10;;;;;;5078132;28;19916;-53
2021/01/07 05:19:59;;;;;;;;;;;27.40;38.10;;;;;;5074572;28;19916;-50
2021/01/07 05:22:41;;;;;;;;;;;27.40;38.00;;;;;;5074139;28;19961;-54
2021/01/07 05:25:10;;;;;;;;;;;27.40;38.00;;;;;;5074453;28;20484;-52
2021/01/07 05:27:36;;;;;;;;;;;27.40;38.00;;;;;;5084804;28;20002;-50
2021/01/07 05:30:02;;;;;;;;;;;27.50;38.10;;;;;;5094400;28;19920;-51
2021/01/07 05:32:34;;;;;;;;;;;27.40;38.00;;;;;;5084204;28;20015;-53
2021/01/07 05:35:00;;;;;;;;;;;27.40;37.90;;;;;;5073990;28;19995;-50
2021/01/07 05:37:25;;;;;;;;;;;27.40;37.90;;;;;;5083875;28;19952;-50
2021/01/07 05:39:51;;;;;;;;;;;27.40;37.90;;;;;;5082857;28;20359;-50
2021/01/07 05:42:16;;;;;;;;;;;27.40;37.90;;;;;;5094382;28;19991;-50
2021/01/07 05:44:48;;;;;;;;;;;27.50;37.90;;;;;;5094174;28;19912;-50
2021/01/07 05:47:28;;;;;;;;;;;27.40;37.80;;;;;;5094335;28;19915;-51
2021/01/07 05:49:53;;;;;;;;;;;27.40;37.80;;;;;;5087959;28;19992;-50
2021/01/07 05:52:19;;;;;;;;;;;27.40;37.90;;;;;;5094136;28;19955;-50
2021/01/07 05:54:44;;;;;;;;;;;27.40;37.80;;;;;;5084485;28;19916;-49
2021/01/07 05:57:10;;;;;;;;;;;27.40;37.80;;;;;;5089390;28;19912;-50
2021/01/07 05:59:35;;;;;;;;;;;27.40;37.80;;;;;;5087149;28;19916;-50
2021/01/07 06:02:02;;;;;;;;;;;27.40;37.80;;;;;;5084466;28;19912;-49
2021/01/07 06:04:29;;;;;;;;;;;27.40;37.80;;;;;;5076248;28;19966;-50
2021/01/07 06:06:54;;;;;;;;;;;27.40;37.70;;;;;;5090839;28;19908;-50
2021/01/07 06:09:20;;;;;;;;;;;27.40;37.70;;;;;;5079772;28;19922;-50
2021/01/07 06:11:45;;;;;;;;;;;27.40;37.70;;;;;;5089160;28;19924;-52
2021/01/07 06:14:11;;;;;;;;;;;27.50;37.80;;;;;;5073463;28;19908;-49
2021/01/07 06:16:40;;;;;;;;;;;27.40;37.70;;;;;;5073272;28;19908;-51
2021/01/07 06:19:26;;;;;;;;;;;27.40;37.60;;;;;;5086134;28;19913;-50
2021/01/07 06:21:51;;;;;;;;;;;27.40;37.70;;;;;;5054239;28;19917;-49
2021/01/07 06:24:16;;;;;;;;;;;27.40;37.70;;;;;;5070295;28;19908;-50
2021/01/07 06:26:44;;;;;;;;;;;27.40;37.70;;;;;;5072917;28;19908;-50
2021/01/07 06:29:09;;;;;;;;;;;27.40;37.70;;;;;;5072925;28;20303;-50
2021/01/07 06:31:35;;;;;;;;;;;27.40;37.70;;;;;;5077800;28;19929;-50
2021/01/07 06:34:01;;;;;;;;;;;27.40;37.60;;;;;;5071013;28;19912;-49
2021/01/07 06:36:45;;;;;;;;;;;27.40;37.70;;;;;;5071651;28;19979;-52
2021/01/07 06:39:10;;;;;;;;;;;27.40;37.60;;;;;;5072881;28;19956;-51
2021/01/07 06:41:36;;;;;;;;;;;27.40;37.60;;;;;;5072995;28;19982;-51
2021/01/07 06:44:02;;;;;;;;;;;27.40;37.60;;;;;;5073249;28;20270;-49
2021/01/07 06:46:40;;;;;;;;;;;27.40;37.50;;;;;;5089752;28;19912;-49
2021/01/07 06:49:21;;;;;;;;;;;27.50;37.50;;;;;;5093052;28;20331;-54
2021/01/07 06:51:57;;;;;;;;;;;27.40;37.50;;;;;;5093080;28;20014;-52
2021/01/07 06:54:29;;;;;;;;;;;27.40;37.50;;;;;;5088111;28;19912;-51
2021/01/07 06:56:55;;;;;;;;;;;27.40;37.60;;;;;;5086294;28;20393;-50
2021/01/07 06:59:21;;;;;;;;;;;27.40;37.60;;;;;;5072881;28;19909;-51
2021/01/07 07:01:47;;;;;;;;;;;27.40;37.60;;;;;;5078649;28;19923;-51
2021/01/07 07:04:12;;;;;;;;;;;27.40;37.50;;;;;;5093284;28;19908;-51
2021/01/07 07:06:38;;;;;;;;;;;27.40;37.50;;;;;;5078013;28;19967;-51
2021/01/07 07:09:15;;;;;;;;;;;27.40;37.50;;;;;;5077421;28;19912;-51
2021/01/07 07:11:40;;;;;;;;;;;27.40;37.50;;;;;;5072688;28;19916;-50
2021/01/07 07:14:06;;;;;;;;;;;27.40;37.50;;;;;;5072009;28;20307;-53
2021/01/07 07:16:32;;;;;;;;;;;27.40;37.50;;;;;;5052896;28;19920;-49
2021/01/07 07:18:58;;;;;;;;;;;27.40;37.50;;;;;;5055020;28;20278;-51
2021/01/07 07:21:24;;;;;;;;;;;27.40;38.10;;;;;;5085160;28;19989;-52
2021/01/07 07:23:50;;;;;;;;;;;27.40;37.50;;;;;;5091998;28;20374;-51
2021/01/07 07:26:30;;;;;;;;;;;27.40;37.50;;;;;;5072659;28;19908;-52
2021/01/07 07:28:56;;;;;;;;;;;27.40;37.50;;;;;;5073033;28;19966;-50
2021/01/07 07:31:40;;;;;;;;;;;27.40;37.50;;;;;;5090624;28;19928;-50
2021/01/07 07:34:06;;;;;;;;;;;27.40;37.50;;;;;;5096941;28;19908;-51
2021/01/07 07:36:32;;;;;;;;;;;27.40;37.50;;;;;;5085146;28;19935;-50
2021/01/07 07:38:57;;;;;;;;;;;27.30;37.50;;;;;;5081610;28;20382;-51
2021/01/07 07:41:25;;;;;;;;;;;27.40;37.50;;;;;;5096330;28;19908;-51
2021/01/07 07:43:52;;;;;;;;;;;27.40;37.50;;;;;;5095700;28;19908;-49
2021/01/07 07:46:17;;;;;;;;;;;27.40;37.50;;;;;;5076032;28;19927;-53
2021/01/07 07:48:43;;;;;;;;;;;27.40;37.50;;;;;;5091790;28;19908;-53
2021/01/07 07:51:08;;;;;;;;;;;27.40;37.50;;;;;;5095937;28;20372;-54
2021/01/07 07:53:34;;;;;;;;;;;27.40;37.50;;;;;;5096311;28;19908;-53
2021/01/07 07:55:59;;;;;;;;;;;27.40;37.50;;;;;;5080421;28;19954;-54
2021/01/07 07:58:25;;;;;;;;;;;27.40;37.50;;;;;;5096133;28;19957;-53
2021/01/07 08:00:51;;;;;;;;;;;27.40;37.50;;;;;;5080880;28;20270;-53
2021/01/07 08:03:23;;;;;;;;;;;27.40;37.40;;;;;;5091988;28;19996;-54
2021/01/07 08:05:48;;;;;;;;;;;27.40;37.40;;;;;;5093246;28;19964;-54
2021/01/07 08:08:20;;;;;;;;;;;27.40;37.40;;;;;;5077097;28;19982;-54
2021/01/07 08:10:45;;;;;;;;;;;27.40;37.50;;;;;;5055730;28;20351;-49
2021/01/07 08:13:11;;;;;;;;;;;27.40;37.40;;;;;;5055831;28;19923;-50
2021/01/07 08:15:36;;;;;;;;;;;27.40;37.40;;;;;;5074095;28;20240;-50
2021/01/07 08:18:14;;;;;;;;;;;27.40;37.40;;;;;;5055874;28;19920;-51
2021/01/07 08:20:40;;;;;;;;;;;27.40;37.40;;;;;;5085830;28;19999;-50
2021/01/07 08:23:12;;;;;;;;;;;27.40;37.40;;;;;;5075595;28;19947;-49
2021/01/07 08:25:37;;;;;;;;;;;27.40;37.40;;;;;;5075474;28;20378;-49
2021/01/07 08:28:09;;;;;;;;;;;27.30;37.30;;;;;;5075299;28;19959;-53
2021/01/07 08:30:38;;;;;;;;;;;27.40;37.40;;;;;;5090362;28;19920;-50
2021/01/07 08:33:04;;;;;;;;;;;27.40;37.40;;;;;;5088286;28;19920;-49
2021/01/07 08:35:29;;;;;;;;;;;27.30;37.30;;;;;;5076782;28;20389;-50
2021/01/07 08:37:54;;;;;;;;;;;27.40;37.40;;;;;;5075994;28;19939;-50
2021/01/07 08:40:20;;;;;;;;;;;27.40;37.40;;;;;;5087145;28;19912;-49
2021/01/07 08:42:46;;;;;;;;;;;27.40;37.40;;;;;;5075029;28;19913;-49
2021/01/07 08:45:11;;;;;;;;;;;27.30;37.30;;;;;;5087014;28;19912;-49
2021/01/07 08:47:38;;;;;;;;;;;27.40;37.40;;;;;;5095335;28;20371;-50
2021/01/07 08:50:03;;;;;;;;;;;27.40;37.40;;;;;;5084253;28;19916;-50
2021/01/07 08:52:29;;;;;;;;;;;27.30;37.30;;;;;;5074793;28;20062;-50
2021/01/07 08:54:54;;;;;;;;;;;27.40;37.40;;;;;;5081029;28;19913;-50
2021/01/07 08:57:20;;;;;;;;;;;27.40;37.40;;;;;;5054769;28;19954;-51
2021/01/07 08:59:45;;;;;;;;;;;27.40;37.30;;;;;;5071389;28;19912;-49
2021/01/07 09:02:11;;;;;;;;;;;27.40;37.30;;;;;;5093200;28;19921;-49
2021/01/07 09:04:40;;;;;;;;;;;27.40;37.30;;;;;;5076800;28;19912;-49
2021/01/07 09:07:09;;;;;;;;;;;27.40;37.40;;;;;;5076366;28;19959;-49
2021/01/07 09:09:38;;;;;;;;;;;27.30;37.30;;;;;;5085037;28;19916;-49
2021/01/07 09:12:07;;;;;;;;;;;27.30;37.30;;;;;;5095028;28;19920;-52
2021/01/07 09:14:45;;;;;;;;;;;27.30;37.30;;;;;;5083275;28;19919;-50
2021/01/07 09:17:11;;;;;;;;;;;27.30;37.20;;;;;;5089814;28;20005;-50
2021/01/07 09:19:37;;;;;;;;;;;27.30;37.30;;;;;;5094743;28;20335;-50
2021/01/07 09:22:02;;;;;;;;;;;27.40;37.30;;;;;;5094626;28;19919;-50
2021/01/07 09:24:31;;;;;;;;;;;27.30;37.30;;;;;;5083253;28;19913;-51
2021/01/07 09:27:03;;;;;;;;;;;27.30;37.20;;;;;;5064420;28;20004;-50
2021/01/07 09:29:29;;;;;;;;;;;27.40;37.30;;;;;;5068063;28;19972;-50
2021/01/07 09:31:54;;;;;;;;;;;27.30;37.30;;;;;;5080709;28;20345;-50
2021/01/07 09:34:20;;;;;;;;;;;27.30;37.30;;;;;;5074139;28;19916;-50
2021/01/07 09:36:45;;;;;;;;;;;27.40;37.30;;;;;;5087396;28;19918;-49
2021/01/07 09:39:11;;;;;;;;;;;27.40;37.30;;;;;;5087195;28;20328;-54
2021/01/07 09:41:36;;;;;;;;;;;27.40;37.30;;;;;;5073882;28;19919;-49
2021/01/07 09:44:02;;;;;;;;;;;27.40;37.30;;;;;;5091395;28;19923;-50
2021/01/07 09:46:27;;;;;;;;;;;27.40;37.30;;;;;;5094315;28;20289;-49
2021/01/07 09:48:52;;;;;;;;;;;27.30;37.20;;;;;;5092714;28;19997;-50
2021/01/07 09:51:18;;;;;;;;;;;27.40;37.20;;;;;;5091960;28;19969;-49
2021/01/07 09:53:43;;;;;;;;;;;27.30;37.20;;;;;;5093508;28;20608;-51
2021/01/07 09:56:09;;;;;;;;;;;27.40;37.20;;;;;;5074098;28;19916;-51
2021/01/07 09:58:34;;;;;;;;;;;27.30;37.20;;;;;;5073899;28;19912;-51
2021/01/07 10:01:00;;;;;;;;;;;27.40;37.30;;;;;;5091970;28;20396;-50
2021/01/07 10:03:25;;;;;;;;;;;27.40;37.20;;;;;;5078152;28;19974;-49
2021/01/07 10:05:51;;;;;;;;;;;27.40;37.20;;;;;;5080706;28;19915;-49
2021/01/07 10:08:16;;;;;;;;;;;27.30;37.10;;;;;;5074822;28;20432;-53
2021/01/07 10:10:42;;;;;;;;;;;27.40;37.20;;;;;;5073343;28;19909;-50
2021/01/07 10:13:08;;;;;;;;;;;27.40;37.20;;;;;;5073506;28;19930;-52
2021/01/07 10:15:33;;;;;;;;;;;27.40;37.20;;;;;;5075830;28;19991;-51
2021/01/07 10:17:59;;;;;;;;;;;27.30;37.10;;;;;;5073339;28;19928;-49
2021/01/07 10:20:24;;;;;;;;;;;27.30;37.20;;;;;;5077713;28;20429;-51
2021/01/07 10:22:50;;;;;;;;;;;27.40;37.20;;;;;;5072846;28;19923;-51
2021/01/07 10:25:15;;;;;;;;;;;27.30;37.10;;;;;;5074510;28;19919;-50
2021/01/07 10:27:40;;;;;;;;;;;27.30;37.20;;;;;;5089196;28;19913;-50
2021/01/07 10:30:06;;;;;;;;;;;27.30;37.10;;;;;;5081697;28;19920;-56
2021/01/07 10:32:32;;;;;;;;;;;27.30;37.30;;;;;;5085443;28;19963;-58
2021/01/07 10:34:57;;;;;;;;;;;27.40;37.30;;;;;;5073256;28;20339;-48
2021/01/07 10:37:23;;;;;;;;;;;27.50;37.20;;;;;;5073932;28;19920;-51
2021/01/07 10:39:50;;;;;;;;;;;27.60;37.30;;;;;;5081800;28;19919;-49
2021/01/07 10:42:16;;;;;;;;;;;27.60;37.20;;;;;;5093153;28;20046;-51
2021/01/07 10:44:42;;;;;;;;;;;27.60;37.60;;;;;;5085262;28;19991;-53
2021/01/07 10:47:08;;;;;;;;;;;27.60;37.70;;;;;;5090906;28;19927;-55
2021/01/07 10:49:34;;;;;;;;;;;27.50;37.50;;;;;;5089505;28;20282;-54
2021/01/07 10:52:11;;;;;;;;;;;27.50;37.50;;;;;;5093029;28;19965;-50
2021/01/07 10:54:40;;;;;;;;;;;27.50;37.50;;;;;;5085763;28;19913;-51
2021/01/07 10:57:24;;;;;;;;;;;27.60;37.60;;;;;;5089784;28;20365;-49
2021/01/07 11:00:02;;;;;;;;;;;27.50;37.50;;;;;;5088033;28;19944;-52
2021/01/07 11:02:46;;;;;;;;;;;27.60;37.60;;;;;;5083188;28;19919;-52
2021/01/07 11:05:17;;;;;;;;;;;27.50;37.60;;;;;;5074130;28;19919;-50
2021/01/07 11:07:44;;;;;;;;;;;27.50;37.50;;;;;;5092863;28;20337;-53
2021/01/07 11:10:10;;;;;;;;;;;27.30;32.20;;;;;;5091305;28;19912;-54
2021/01/07 11:12:52;;;;;;;;;;;27.20;34.00;;;;;;5081016;28;20032;-59
2021/01/07 11:15:19;;;;;;;;;;;27.20;35.20;;;;;;5072794;28;19919;-53
2021/01/07 11:17:49;;;;;;;;;;;27.20;36.00;;;;;;5084253;28;20358;-57
2021/01/07 11:20:14;;;;;;;;;;;27.30;36.10;;;;;;5092090;28;19918;-56
2021/01/07 11:22:39;;;;;;;;;;;27.40;36.40;;;;;;5092418;28;19908;-59
2021/01/07 11:25:06;;;;;;;;;;;27.50;36.60;;;;;;5091699;28;19908;-54
2021/01/07 11:27:32;;;;;;;;;;;27.50;36.90;;;;;;5092892;28;19933;-57
2021/01/07 11:29:59;;;;;;;;;;;27.50;37.30;;;;;;5084449;28;19928;-50
2021/01/07 11:32:24;;;;;;;;;;;27.50;37.90;;;;;;5089093;28;20386;-51
2021/01/07 11:34:50;;;;;;;;;;;27.60;37.90;;;;;;5091247;28;19908;-50
2021/01/07 11:37:24;;;;;;;;;;;27.60;37.90;;;;;;5072283;28;19913;-57
2021/01/07 11:39:54;;;;;;;;;;;27.60;38.10;;;;;;5074848;28;19912;-59
2021/01/07 11:42:35;;;;;;;;;;;27.70;38.30;;;;;;5088130;28;19909;-51
2021/01/07 11:45:03;;;;;;;;;;;27.70;38.50;;;;;;5090953;28;19919;-59
2021/01/07 11:47:30;;;;;;;;;;;27.80;38.60;;;;;;5092618;28;19908;-59
2021/01/07 11:49:55;;;;;;;;;;;27.80;38.90;;;;;;5081224;28;19919;-49
2021/01/07 11:52:21;;;;;;;;;;;27.80;38.90;;;;;;5087838;28;19917;-53
2021/01/07 11:54:46;;;;;;;;;;;27.80;39.10;;;;;;5079117;28;19917;-49
2021/01/07 11:57:12;;;;;;;;;;;27.80;39.20;;;;;;5052041;28;19956;-51
2021/01/07 11:59:37;;;;;;;;;;;27.80;38.90;;;;;;5069990;28;19920;-52
2021/01/07 12:02:12;;;;;;;;;;;27.80;39.00;;;;;;5054699;28;20260;-51
2021/01/07 12:04:37;;;;;;;;;;;27.90;39.00;;;;;;5072167;28;19955;-59
2021/01/07 12:07:03;;;;;;;;;;;27.90;39.10;;;;;;5073303;28;20468;-61
2021/01/07 12:09:30;;;;;;;;;;;27.90;39.20;;;;;;5077717;28;19943;-55
2021/01/07 12:12:06;;;;;;;;;;;27.90;39.20;;;;;;5091181;28;19916;-48
2021/01/07 12:14:33;;;;;;;;;;;27.80;39.30;;;;;;5084759;28;20274;-50
2021/01/07 12:17:00;;;;;;;;;;;27.80;39.20;;;;;;5090183;28;20324;-48
2021/01/07 12:19:27;;;;;;;;;;;27.80;38.90;;;;;;5080790;28;20369;-49
2021/01/07 12:21:52;;;;;;;;;;;27.80;38.70;;;;;;5094843;28;19919;-58
2021/01/07 12:24:19;;;;;;;;;;;27.80;38.70;;;;;;5087202;28;19917;-61
2021/01/07 12:26:46;;;;;;;;;;;27.80;38.80;;;;;;5055777;28;19908;-60
2021/01/07 12:29:15;;;;;;;;;;;27.80;38.60;;;;;;5058397;28;19924;-60
2021/01/07 12:31:42;;;;;;;;;;;27.80;38.60;;;;;;5082122;28;20362;-50
2021/01/07 12:34:15;;;;;;;;;;;27.80;38.60;;;;;;5095866;28;20006;-47
2021/01/07 12:37:01;;;;;;;;;;;27.80;38.80;;;;;;5079864;28;21581;-46
2021/01/07 12:39:45;;;;;;;;;;;27.80;38.70;;;;;;5080931;28;19918;-49
2021/01/07 12:42:11;;;;;;;;;;;27.80;38.60;;;;;;5079226;28;19927;-48
2021/01/07 12:44:38;;;;;;;;;;;27.80;38.50;;;;;;5075450;28;19916;-49
2021/01/07 12:47:03;;;;;;;;;;;27.80;38.50;;;;;;5075286;28;20301;-48
2021/01/07 12:49:29;;;;;;;;;;;27.80;38.40;;;;;;5081168;28;19913;-46
2021/01/07 12:51:54;;;;;;;;;;;27.80;38.30;;;;;;5094071;28;19917;-46
2021/01/07 12:54:20;;;;;;;;;;;27.80;38.90;;;;;;5090466;28;19913;-48
2021/01/07 12:56:52;;;;;;;;;;;27.80;38.30;;;;;;5072451;28;19959;-48
2021/01/07 12:59:19;;;;;;;;;;;27.80;38.30;;;;;;5074688;28;19913;-50
2021/01/07 13:01:52;;;;;;;;;;;27.80;40.60;;;;;;5074850;28;19944;-50
2021/01/07 13:04:37;;;;;;;;;;;27.20;31.10;;;;;;5094986;28;20015;-51
2021/01/07 13:07:02;;;;;;;;;;;26.60;37.90;;;;;;5075302;28;19912;-49
2021/01/07 13:09:29;;;;;;;;;;;26.90;42.10;;;;;;5084584;28;19936;-52
2021/01/07 13:11:55;;;;;;;;;;;27.30;45.40;;;;;;5074960;28;19920;-51
2021/01/07 13:14:20;;;;;;;;;;;27.60;47.20;;;;;;5077289;28;20011;-51
2021/01/07 13:16:46;;;;;;;;;;;27.80;47.70;;;;;;5090382;28;19908;-51
2021/01/07 13:19:11;;;;;;;;;;;27.90;48.10;;;;;;5077846;28;19919;-51
2021/01/07 13:21:37;;;;;;;;;;;28.00;47.70;;;;;;5094632;28;19917;-52
2021/01/07 13:24:03;;;;;;;;;;;28.10;48.00;;;;;;5091966;28;20007;-53
2021/01/07 13:26:29;;;;;;;;;;;28.20;47.80;;;;;;5094076;28;19964;-54
2021/01/07 13:28:55;;;;;;;;;;;28.10;48.70;;;;;;5092472;28;20374;-56
2021/01/07 13:31:21;;;;;;;;;;;28.20;48.10;;;;;;5086450;28;19928;-61
2021/01/07 13:33:46;;;;;;;;;;;28.20;47.80;;;;;;5091722;28;19912;-54
2021/01/07 13:36:12;;;;;;;;;;;28.10;47.60;;;;;;5085121;28;20007;-52
2021/01/07 13:38:37;;;;;;;;;;;28.10;47.40;;;;;;5073923;28;19919;-51
2021/01/07 13:41:03;;;;;;;;;;;28.10;47.40;;;;;;5070326;28;19920;-50
2021/01/07 13:43:28;;;;;;;;;;;28.10;47.40;;;;;;5069788;28;19916;-60
2021/01/07 13:45:54;;;;;;;;;;;28.10;47.20;;;;;;5089937;28;19916;-61
2021/01/07 13:48:19;;;;;;;;;;;28.10;47.00;;;;;;5092909;28;19944;-50
2021/01/07 13:50:47;;;;;;;;;;;28.10;46.60;;;;;;5076321;28;19999;-50
2021/01/07 13:53:12;;;;;;;;;;;28.10;46.70;;;;;;5073528;28;20374;-52
2021/01/07 13:55:38;;;;;;;;;;;28.10;46.50;;;;;;5073789;28;19923;-61
2021/01/07 13:58:03;;;;;;;;;;;28.10;46.50;;;;;;5069160;28;20279;-58
2021/01/07 14:00:29;;;;;;;;;;;28.10;46.10;;;;;;5082326;28;19920;-59
2021/01/07 14:02:54;;;;;;;;;;;28.10;46.20;;;;;;5091253;28;19925;-61
2021/01/07 14:05:20;;;;;;;;;;;28.10;46.00;;;;;;5089190;28;20000;-49
2021/01/07 14:07:58;;;;;;;;;;;28.10;46.00;;;;;;5073743;28;19908;-52
2021/01/07 14:10:23;;;;;;;;;;;28.10;45.70;;;;;;5084548;28;19920;-56
2021/01/07 14:12:49;;;;;;;;;;;28.10;45.70;;;;;;5089005;28;19916;-54
2021/01/07 14:15:14;;;;;;;;;;;28.20;45.60;;;;;;5073401;28;19916;-56